createdAt,value
2022-08-04T00:00:13.517Z,1.35
2022-08-04T00:02:55.106Z,1.77
2022-08-04T00:05:56.996Z,2.10
2022-08-04T00:08:29.988Z,2.10
2022-08-04T00:11:00.196Z,1.95
2022-08-04T00:13:33.141Z,2.03
2022-08-04T00:16:07.003Z,1.83
2022-08-04T00:18:52.618Z,2.40
2022-08-04T00:21:21.857Z,1.80
2022-08-04T00:24:10.379Z,2.10
2022-08-04T00:26:37.064Z,1.98
2022-08-04T00:29:05.612Z,2.00
2022-08-04T00:31:54.131Z,2.00
2022-08-04T00:34:19.768Z,2.20
2022-08-04T00:36:46.684Z,2.40
2022-08-04T00:39:14.680Z,1.88
2022-08-04T00:41:56.476Z,2.20
2022-08-04T00:44:42.122Z,1.75
2022-08-04T00:47:44.111Z,1.95
2022-08-04T00:50:13.297Z,1.70
2022-08-04T00:53:01.712Z,2.35
2022-08-04T00:56:06.391Z,2.20
2022-08-04T00:58:42.924Z,1.95
2022-08-04T01:01:18.303Z,1.80
2022-08-04T01:03:51.169Z,2.10
2022-08-04T01:06:42.596Z,1.83
2022-08-04T01:09:21.466Z,2.95
2022-08-04T01:12:03.417Z,2.13
2022-08-04T01:14:50.131Z,1.60
2022-08-04T01:17:20.836Z,2.97
2022-08-04T01:19:54.467Z,2.20
2022-08-04T01:22:23.782Z,1.80
2022-08-04T01:25:08.725Z,1.98
2022-08-04T01:28:17.693Z,1.92
2022-08-04T01:30:48.882Z,2.40
2022-08-04T01:33:17.776Z,1.77
2022-08-04T01:35:48.780Z,3.00
2022-08-04T01:38:39.193Z,2.30
2022-08-04T01:41:08.098Z,2.22
2022-08-04T01:43:40.664Z,2.10
2022-08-04T01:46:11.480Z,2.05
2022-08-04T01:48:43.185Z,1.92
2022-08-04T01:51:13.241Z,1.90
2022-08-04T01:53:44.075Z,2.22
2022-08-04T01:56:13.094Z,2.67
2022-08-04T01:58:41.134Z,2.05
2022-08-04T02:01:12.786Z,2.30
2022-08-04T02:04:18.259Z,3.05
2022-08-04T02:06:46.888Z,1.92
2022-08-04T02:09:54.399Z,2.00
2022-08-04T02:12:31.391Z,2.30
2022-08-04T02:14:57.941Z,2.25
2022-08-04T02:17:39.553Z,2.20
2022-08-04T02:20:09.288Z,2.47
2022-08-04T02:22:46.138Z,2.50
2022-08-04T02:25:17.798Z,2.38
2022-08-04T02:28:04.029Z,2.10
2022-08-04T02:30:53.627Z,2.20
2022-08-04T02:33:26.866Z,2.20
2022-08-04T02:35:59.129Z,1.85
2022-08-04T02:38:35.040Z,1.88
2022-08-04T02:41:02.271Z,2.10
2022-08-04T02:43:51.288Z,2.15
2022-08-04T02:46:21.240Z,2.20
2022-08-04T02:48:50.253Z,2.10
2022-08-04T02:51:21.099Z,2.20
2022-08-04T02:53:52.560Z,1.90
2022-08-04T02:56:21.738Z,1.90
2022-08-04T02:59:02.767Z,2.15
2022-08-04T03:01:32.726Z,2.45
2022-08-04T03:04:08.587Z,3.15
2022-08-04T03:07:06.968Z,2.05
2022-08-04T03:10:12.304Z,2.25
2022-08-04T03:12:57.764Z,2.08
2022-08-04T03:15:37.890Z,2.75
2022-08-04T03:18:24.773Z,2.60
2022-08-04T03:21:16.009Z,2.80
2022-08-04T03:24:02.916Z,2.22
2022-08-04T03:26:50.729Z,2.20
2022-08-04T03:29:39.085Z,2.40
2022-08-04T03:32:24.088Z,2.22
2022-08-04T03:35:02.648Z,2.28
2022-08-04T03:37:39.305Z,2.15
2022-08-04T03:40:24.397Z,1.95
2022-08-04T03:43:57.342Z,2.30
2022-08-04T03:46:53.945Z,2.40
2022-08-04T03:49:56.808Z,2.05
2022-08-04T03:53:10.709Z,2.03
2022-08-04T03:56:04.376Z,2.00
2022-08-04T03:59:00.261Z,1.98
2022-08-04T04:02:02.399Z,2.05
2022-08-04T04:04:42.252Z,2.17
2022-08-04T04:07:13.884Z,2.40
2022-08-04T04:10:28.654Z,2.20
2022-08-04T04:13:16.178Z,2.03
2022-08-04T04:16:06.729Z,2.08
2022-08-04T04:18:54.472Z,2.92
2022-08-04T04:21:21.145Z,2.45
2022-08-04T04:23:57.328Z,2.08
2022-08-04T04:26:39.139Z,2.08
2022-08-04T04:29:44.065Z,1.88
2022-08-04T04:32:28.096Z,2.05
2022-08-04T04:35:28.456Z,1.95
2022-08-04T04:38:16.012Z,1.95
2022-08-04T04:40:51.778Z,2.03
2022-08-04T04:43:51.991Z,2.40
2022-08-04T04:46:37.245Z,1.63
2022-08-04T04:49:34.903Z,2.45
2022-08-04T04:52:24.959Z,2.10
2022-08-04T04:55:10.269Z,2.75
2022-08-04T04:57:51.928Z,1.67
2022-08-04T05:00:23.668Z,1.80
2022-08-04T05:03:29.315Z,2.20
2022-08-04T05:06:04.991Z,1.70
2022-08-04T05:08:54.034Z,1.90
2022-08-04T05:11:51.693Z,1.80
2022-08-04T05:14:35.436Z,1.80
2022-08-04T05:17:26.549Z,2.25
2022-08-04T05:20:24.578Z,1.88
2022-08-04T05:22:53.481Z,1.67
2022-08-04T05:25:25.544Z,1.50
2022-08-04T05:28:02.665Z,1.95
2022-08-04T05:30:32.961Z,1.65
2022-08-04T05:33:04.440Z,1.95
2022-08-04T05:36:17.836Z,1.90
2022-08-04T05:38:37.181Z,1.88
2022-08-04T05:41:04.751Z,1.95
2022-08-04T05:43:32.130Z,1.70
2022-08-04T05:45:59.820Z,2.17
2022-08-04T05:48:28.359Z,1.60
2022-08-04T05:51:00.758Z,1.80
2022-08-04T05:53:29.013Z,1.58
2022-08-04T05:55:59.076Z,2.70
2022-08-04T05:58:29.634Z,1.90
2022-08-04T06:00:57.929Z,1.50
2022-08-04T06:03:27.055Z,1.60
2022-08-04T06:05:54.828Z,2.22
2022-08-04T06:08:21.628Z,1.55
2022-08-04T06:10:49.684Z,2.38
2022-08-04T06:13:47.791Z,1.50
2022-08-04T06:16:08.536Z,2.00
2022-08-04T06:20:03.768Z,1.58
2022-08-04T06:21:39.429Z,1.67
2022-08-04T06:24:10.856Z,1.50
2022-08-04T06:26:38.633Z,1.73
2022-08-04T06:29:10.749Z,1.90
2022-08-04T06:32:27.054Z,1.50
2022-08-04T06:34:35.440Z,2.45
2022-08-04T06:37:03.573Z,1.88
2022-08-04T06:39:33.081Z,1.88
2022-08-04T06:42:21.349Z,1.40
2022-08-04T06:44:52.164Z,1.50
2022-08-04T06:47:21.450Z,1.50
2022-08-04T06:51:27.334Z,1.40
2022-08-04T06:52:40.290Z,1.52
2022-08-04T06:55:08.191Z,1.75
2022-08-04T06:57:35.740Z,1.63
2022-08-04T07:00:12.591Z,1.73
2022-08-04T07:02:43.265Z,2.08
2022-08-04T07:05:11.389Z,2.17
2022-08-04T07:07:57.419Z,1.25
2022-08-04T07:10:30.292Z,1.30
2022-08-04T07:12:58.224Z,1.83
2022-08-04T07:15:26.201Z,1.38
2022-08-04T07:17:53.917Z,2.13
2022-08-04T07:20:34.722Z,1.80
2022-08-04T07:23:03.800Z,2.28
2022-08-04T07:26:00.731Z,2.00
2022-08-04T07:28:20.496Z,1.50
2022-08-04T07:30:48.828Z,1.85
2022-08-04T07:33:19.533Z,2.05
2022-08-04T07:36:04.425Z,1.10
2022-08-04T07:38:37.500Z,1.65
2022-08-04T07:43:59.866Z,2.10
2022-08-04T07:46:26.673Z,2.13
2022-08-04T07:49:01.473Z,1.20
2022-08-04T07:51:34.133Z,1.50
2022-08-04T07:54:05.473Z,1.05
2022-08-04T07:56:33.775Z,1.88
2022-08-04T07:59:01.320Z,1.70
2022-08-04T08:01:28.433Z,1.80
2022-08-04T08:03:57.043Z,1.60
2022-08-04T08:06:32.729Z,1.65
2022-08-04T08:09:12.309Z,1.70
2022-08-04T08:12:35.505Z,1.48
2022-08-04T08:14:35.824Z,1.25
2022-08-04T08:17:05.377Z,1.40
2022-08-04T08:19:33.168Z,1.30
2022-08-04T08:22:01.649Z,1.30
2022-08-04T08:24:35.338Z,1.30
2022-08-04T08:27:04.592Z,2.08
2022-08-04T08:29:34.011Z,1.30
2022-08-04T08:32:07.742Z,1.67
2022-08-04T08:37:33.868Z,1.20
2022-08-04T08:40:39.941Z,1.30
2022-08-04T08:44:04.559Z,1.15
2022-08-04T08:46:49.722Z,1.00
2022-08-04T08:50:01.547Z,1.30
2022-08-04T08:53:09.700Z,1.50
2022-08-04T08:56:15.771Z,1.50
2022-08-04T08:59:03.969Z,1.23
2022-08-04T09:02:07.928Z,1.38
2022-08-04T09:05:02.966Z,1.55
2022-08-04T09:10:24.544Z,1.23
2022-08-04T09:12:56.537Z,0.98
2022-08-04T09:15:26.201Z,1.08
2022-08-04T09:18:02.304Z,1.15
2022-08-04T09:20:34.011Z,1.20
2022-08-04T09:23:03.696Z,1.20
2022-08-04T09:25:58.351Z,1.58
2022-08-04T09:28:53.118Z,1.15
2022-08-04T09:31:24.676Z,1.63
2022-08-04T09:34:04.615Z,1.38
2022-08-04T09:36:47.711Z,1.40
2022-08-04T09:39:20.343Z,0.90
2022-08-04T09:42:10.202Z,1.10
2022-08-04T09:44:52.976Z,1.48
2022-08-04T09:47:45.540Z,1.35
2022-08-04T09:50:33.867Z,0.98
2022-08-04T09:53:38.993Z,1.10
2022-08-04T09:56:28.415Z,1.30
2022-08-04T09:59:16.009Z,0.95
2022-08-04T10:01:44.905Z,1.42
2022-08-04T10:04:14.952Z,1.88
2022-08-04T10:06:49.438Z,1.20
2022-08-04T10:09:31.228Z,1.13
2022-08-04T10:11:58.026Z,1.38
2022-08-04T10:14:49.288Z,1.20
2022-08-04T10:17:35.847Z,1.20
2022-08-04T10:20:14.308Z,1.30
2022-08-04T10:23:56.075Z,1.52
2022-08-04T10:26:33.717Z,0.90
2022-08-04T10:29:38.434Z,1.10
2022-08-04T10:32:14.566Z,1.30
2022-08-04T10:34:59.432Z,1.50
2022-08-04T10:37:53.179Z,1.27
2022-08-04T10:43:33.851Z,1.20
2022-08-04T10:46:23.216Z,0.90
2022-08-04T10:48:59.157Z,1.75
2022-08-04T10:51:58.139Z,1.20
2022-08-04T10:54:59.276Z,1.27
2022-08-04T10:57:41.687Z,1.00
2022-08-04T11:00:13.023Z,1.23
2022-08-04T11:03:06.123Z,1.13
2022-08-04T11:05:57.989Z,1.52
2022-08-04T11:08:44.204Z,1.83
2022-08-04T11:11:23.426Z,1.05
2022-08-04T11:14:04.199Z,1.35
2022-08-04T11:16:43.133Z,1.13
2022-08-04T11:19:43.015Z,1.27
2022-08-04T11:22:23.092Z,1.80
2022-08-04T11:24:55.805Z,1.05
2022-08-04T11:27:34.296Z,1.27
2022-08-04T11:30:07.527Z,0.93
2022-08-04T11:32:52.229Z,1.70
2022-08-04T11:38:27.926Z,1.38
2022-08-04T11:41:10.069Z,1.27
2022-08-04T11:44:01.957Z,0.93
2022-08-04T11:46:34.435Z,1.50
2022-08-04T11:49:11.969Z,1.15
2022-08-04T11:51:40.673Z,0.98
2022-08-04T11:54:10.650Z,1.02
2022-08-04T11:56:38.298Z,0.80
2022-08-04T11:59:08.227Z,1.10
2022-08-04T12:01:47.911Z,1.00
2022-08-04T12:04:42.503Z,1.42
2022-08-04T12:07:34.580Z,1.13
2022-08-04T12:10:10.006Z,1.25
2022-08-04T12:12:51.104Z,1.10
2022-08-04T12:15:30.752Z,1.20
2022-08-04T12:18:22.180Z,1.77
2022-08-04T12:20:59.032Z,0.98
2022-08-04T12:23:32.735Z,1.40
2022-08-04T12:26:10.841Z,1.10
2022-08-04T12:31:40.501Z,1.00
2022-08-04T12:34:29.867Z,1.70
2022-08-04T12:37:20.525Z,1.30
2022-08-04T12:40:28.692Z,1.08
2022-08-04T12:42:56.035Z,0.85
2022-08-04T12:45:27.913Z,1.30
2022-08-04T12:47:58.225Z,1.45
2022-08-04T12:50:26.560Z,1.30
2022-08-04T12:53:02.093Z,1.13
2022-08-04T12:55:35.753Z,1.42
2022-08-04T12:58:11.732Z,1.20
2022-08-04T13:00:41.752Z,1.10
2022-08-04T13:03:12.649Z,0.93
2022-08-04T13:05:41.897Z,1.02
2022-08-04T13:08:10.874Z,1.00
2022-08-04T13:10:40.650Z,1.27
2022-08-04T13:13:19.293Z,0.73
2022-08-04T13:16:01.619Z,0.80
2022-08-04T13:21:49.809Z,1.10
2022-08-04T13:27:16.516Z,0.95
2022-08-04T13:29:59.430Z,1.17
2022-08-04T13:30:24.088Z,1.02
2022-08-04T13:30:24.258Z,1.05
2022-08-04T13:32:31.282Z,1.35
2022-08-04T13:35:00.911Z,1.48
2022-08-04T13:37:35.221Z,1.10
2022-08-04T13:40:09.197Z,1.00
2022-08-04T13:42:39.866Z,1.05
2022-08-04T13:45:08.722Z,1.00
2022-08-04T13:47:39.296Z,1.65
2022-08-04T13:50:28.731Z,1.10
2022-08-04T13:53:02.327Z,1.30
2022-08-04T13:55:34.675Z,0.82
2022-08-04T13:58:19.143Z,1.15
2022-08-04T14:01:05.883Z,1.25
2022-08-04T14:03:54.311Z,1.50
2022-08-04T14:06:25.588Z,1.40
2022-08-04T14:08:54.036Z,1.20
2022-08-04T14:12:09.050Z,1.27
2022-08-04T14:14:29.150Z,1.00
2022-08-04T14:16:57.165Z,1.08
2022-08-04T14:19:26.895Z,1.23
2022-08-04T14:21:57.397Z,0.97
2022-08-04T14:24:28.960Z,1.50
2022-08-04T14:27:00.518Z,1.30
2022-08-04T14:29:38.088Z,1.00
2022-08-04T14:32:22.836Z,1.90
2022-08-04T14:34:53.243Z,0.98
2022-08-04T14:37:22.521Z,1.00
2022-08-04T14:40:17.315Z,1.15
2022-08-04T14:42:55.857Z,1.45
2022-08-04T14:45:32.141Z,1.23
2022-08-04T14:48:00.621Z,1.20
2022-08-04T14:50:54.267Z,1.73
2022-08-04T14:53:26.558Z,1.27
2022-08-04T14:55:56.964Z,1.50
2022-08-04T14:58:34.553Z,1.15
2022-08-04T15:01:10.089Z,1.15
2022-08-04T15:03:50.317Z,1.15
2022-08-04T15:06:22.864Z,1.40
2022-08-04T15:08:51.846Z,1.00
2022-08-04T15:11:23.066Z,1.05
2022-08-04T15:13:53.868Z,0.82
2022-08-04T15:16:22.200Z,1.25
2022-08-04T15:18:50.127Z,1.20
2022-08-04T15:21:19.780Z,1.10
2022-08-04T15:23:48.878Z,1.35
2022-08-04T15:26:26.023Z,1.75
2022-08-04T15:28:57.569Z,1.33
2022-08-04T15:32:07.330Z,1.38
2022-08-04T15:34:14.772Z,1.65
2022-08-04T15:36:57.587Z,1.58
2022-08-04T15:39:33.387Z,1.50
2022-08-04T15:42:30.856Z,1.50
2022-08-04T15:45:05.259Z,1.33
2022-08-04T15:47:32.376Z,1.65
2022-08-04T15:50:06.859Z,1.88
2022-08-04T15:53:00.930Z,1.00
2022-08-04T15:55:34.434Z,1.58
2022-08-04T15:58:11.621Z,2.17
2022-08-04T16:00:53.137Z,1.70
2022-08-04T16:03:53.054Z,1.30
2022-08-04T16:06:21.374Z,1.52
2022-08-04T16:08:56.513Z,2.05
2022-08-04T16:11:31.859Z,1.38
2022-08-04T16:13:58.739Z,1.50
2022-08-04T16:16:37.406Z,1.42
2022-08-04T16:19:48.930Z,1.73
2022-08-04T16:22:39.528Z,1.50
2022-08-04T16:25:08.173Z,1.45
2022-08-04T16:27:40.819Z,1.48
2022-08-04T16:30:15.119Z,1.48
2022-08-04T16:32:46.949Z,1.25
2022-08-04T16:35:28.736Z,1.10
2022-08-04T16:38:13.414Z,1.40
2022-08-04T16:43:21.242Z,1.70
2022-08-04T16:46:00.712Z,1.55
2022-08-04T16:48:36.968Z,0.93
2022-08-04T16:51:14.628Z,1.50
2022-08-04T16:53:53.281Z,1.50
2022-08-04T16:56:33.661Z,1.92
2022-08-04T16:59:14.853Z,1.60
2022-08-04T17:01:49.513Z,1.70
2022-08-04T17:04:16.823Z,1.52
2022-08-04T17:06:46.437Z,1.55
2022-08-04T17:09:17.988Z,1.63
2022-08-04T17:11:46.188Z,1.25
2022-08-04T17:14:13.774Z,1.70
2022-08-04T17:16:43.286Z,1.35
2022-08-04T17:19:24.251Z,1.30
2022-08-04T17:22:07.903Z,1.60
2022-08-04T17:24:38.936Z,1.35
2022-08-04T17:28:09.086Z,2.47
2022-08-04T17:29:54.529Z,1.60
2022-08-04T17:32:23.037Z,1.33
2022-08-04T17:34:52.833Z,1.52
2022-08-04T17:37:40.935Z,1.45
2022-08-04T17:44:04.145Z,1.88
2022-08-04T17:46:29.142Z,1.30
2022-08-04T17:49:05.546Z,1.67
2022-08-04T17:52:06.505Z,2.03
2022-08-04T17:54:39.367Z,1.60
2022-08-04T17:57:21.275Z,1.80
2022-08-04T17:59:57.164Z,2.22
2022-08-04T18:02:33.300Z,1.67
2022-08-04T18:05:06.738Z,1.88
2022-08-04T18:08:39.779Z,1.67
2022-08-04T18:10:54.233Z,1.67
2022-08-04T18:13:24.962Z,1.85
2022-08-04T18:16:02.497Z,2.50
2022-08-04T18:18:29.915Z,1.70
2022-08-04T18:21:02.872Z,2.40
2022-08-04T18:23:33.241Z,1.97
2022-08-04T18:26:01.843Z,2.00
2022-08-04T18:28:30.716Z,2.08
2022-08-04T18:31:00.252Z,2.40
2022-08-04T18:33:37.860Z,2.13
2022-08-04T18:36:32.707Z,2.30
2022-08-04T18:39:13.283Z,2.15
2022-08-04T18:42:02.978Z,2.40
2022-08-04T18:47:23.132Z,3.13
2022-08-04T18:50:59.576Z,2.35
2022-08-04T18:52:45.148Z,2.60
2022-08-04T18:55:55.673Z,2.53
2022-08-04T18:58:01.675Z,2.38
2022-08-04T19:03:01.369Z,2.47
2022-08-04T19:05:37.835Z,2.60
2022-08-04T19:08:35.622Z,2.58
2022-08-04T19:10:59.565Z,2.63
2022-08-04T19:13:29.820Z,2.58
2022-08-04T19:16:01.789Z,3.30
2022-08-04T19:18:29.007Z,3.03
2022-08-04T19:20:55.868Z,2.80
2022-08-04T19:24:11.335Z,2.42
2022-08-04T19:26:23.803Z,2.60
2022-08-04T19:28:55.225Z,2.47
2022-08-04T19:31:28.183Z,2.67
2022-08-04T19:34:07.439Z,2.17
2022-08-04T19:36:34.739Z,2.60
2022-08-04T19:39:04.796Z,2.45
2022-08-04T19:42:06.427Z,2.35
2022-08-04T19:44:25.032Z,2.20
2022-08-04T19:46:57.141Z,2.30
2022-08-04T19:50:03.267Z,2.58
2022-08-04T19:52:33.999Z,2.40
2022-08-04T19:55:10.340Z,2.15
2022-08-04T19:57:46.409Z,2.17
2022-08-04T20:00:33.336Z,1.73
2022-08-04T20:03:11.702Z,1.98
2022-08-04T20:05:53.763Z,2.00
2022-08-04T20:08:24.092Z,2.00
2022-08-04T20:10:52.338Z,2.38
2022-08-04T20:13:21.186Z,2.08
2022-08-04T20:15:55.356Z,2.47
2022-08-04T20:18:34.967Z,1.80
2022-08-04T20:21:11.196Z,2.17
2022-08-04T20:23:48.382Z,2.25
2022-08-04T20:26:16.713Z,2.20
2022-08-04T20:28:45.603Z,2.97
2022-08-04T20:31:18.154Z,2.28
2022-08-04T20:36:32.284Z,2.05
2022-08-04T20:38:58.971Z,2.20
2022-08-04T20:41:25.712Z,1.95
2022-08-04T20:44:03.681Z,2.20
2022-08-04T20:46:30.351Z,2.58
2022-08-04T20:48:58.197Z,1.90
2022-08-04T20:51:33.306Z,1.85
2022-08-04T20:54:02.129Z,1.83
2022-08-04T20:56:30.488Z,1.70
2022-08-04T20:59:01.341Z,2.13
2022-08-04T21:01:34.886Z,1.75
2022-08-04T21:04:27.867Z,1.58
2022-08-04T21:06:57.197Z,1.90
2022-08-04T21:09:26.617Z,1.75
2022-08-04T21:12:06.393Z,1.50
2022-08-04T21:14:33.805Z,1.90
2022-08-04T21:17:02.951Z,1.80
2022-08-04T21:19:31.760Z,1.67
2022-08-04T21:21:58.929Z,1.13
2022-08-04T21:24:26.995Z,1.35
2022-08-04T21:26:56.731Z,1.48
2022-08-04T21:29:34.610Z,1.65
2022-08-04T21:32:07.632Z,1.05
2022-08-04T21:34:39.711Z,1.23
2022-08-04T21:37:09.334Z,1.23
2022-08-04T21:39:50.913Z,1.73
2022-08-04T21:42:29.278Z,1.08
2022-08-04T21:44:57.872Z,1.00
2022-08-04T21:47:24.665Z,1.65
2022-08-04T21:49:56.327Z,1.23
2022-08-04T21:52:26.404Z,1.00
2022-08-04T21:54:54.764Z,1.60
2022-08-04T22:00:10.923Z,1.17
2022-08-04T22:02:45.233Z,1.27
2022-08-04T22:05:11.911Z,1.15
2022-08-04T22:07:49.829Z,1.10
2022-08-04T22:10:18.515Z,1.08
2022-08-04T22:12:52.057Z,0.88
2022-08-04T22:18:05.825Z,1.33
2022-08-04T22:20:32.420Z,1.08
2022-08-04T22:23:06.291Z,1.30
2022-08-04T22:25:42.333Z,1.10
2022-08-04T22:28:11.685Z,1.20
2022-08-04T22:30:48.455Z,1.00
2022-08-04T22:33:19.135Z,1.15
2022-08-04T22:35:50.018Z,1.20
2022-08-04T22:38:24.307Z,1.05
2022-08-04T22:40:57.777Z,1.00
2022-08-04T22:43:32.150Z,1.20
2022-08-04T22:46:03.848Z,1.30
2022-08-04T22:48:33.648Z,1.10
2022-08-04T22:51:02.700Z,1.10
2022-08-04T22:53:33.871Z,1.20
2022-08-04T22:56:09.587Z,1.17
2022-08-04T22:58:45.562Z,1.25
2022-08-04T23:01:17.140Z,1.10
2022-08-04T23:03:51.027Z,1.17
2022-08-04T23:06:24.578Z,1.40
2022-08-04T23:08:54.074Z,1.20
2022-08-04T23:11:20.734Z,1.30
2022-08-04T23:13:49.083Z,1.30
2022-08-04T23:16:15.958Z,1.95
2022-08-04T23:18:45.275Z,1.23
2022-08-04T23:21:17.488Z,1.25
2022-08-04T23:24:02.328Z,1.23
2022-08-04T23:26:32.102Z,1.30
2022-08-04T23:28:59.080Z,1.25
2022-08-04T23:31:40.434Z,1.38
2022-08-04T23:34:08.841Z,1.30
2022-08-04T23:36:35.517Z,1.40
2022-08-04T23:39:05.694Z,1.65
2022-08-04T23:41:53.659Z,1.58
2022-08-04T23:44:24.757Z,1.45
2022-08-04T23:47:02.934Z,1.45
2022-08-04T23:49:43.543Z,1.48
2022-08-04T23:52:23.459Z,1.50
2022-08-04T23:55:00.332Z,1.40
2022-08-04T23:57:30.990Z,1.48
